sensor_id;sensor_type;location;lat;lon;timestamp;pressure;altitude;pressure_sealevel;temperature;humidity
48156;BME280;35568;48.104;11.782;2024-03-23T00:55:41;94835.27;;;9.24;49.00
48156;BME280;35568;48.104;11.782;2024-03-23T00:58:08;94831.90;;;9.29;48.98
48156;BME280;35568;48.104;11.782;2024-03-23T01:00:35;94829.69;;;9.17;48.97
48156;BME280;35568;48.104;11.782;2024-03-23T01:03:03;94822.21;;;9.37;48.96
48156;BME280;35568;48.104;11.782;2024-03-23T01:05:30;94819.23;;;9.41;48.89
48156;BME280;35568;48.104;11.782;2024-03-23T01:07:57;94812.12;;;9.37;48.88
48156;BME280;35568;48.104;11.782;2024-03-23T01:10:24;94811.22;;;9.20;48.96
48156;BME280;35568;48.104;11.782;2024-03-23T01:12:51;94807.47;;;9.22;48.88
48156;BME280;35568;48.104;11.782;2024-03-23T01:15:19;94806.74;;;9.25;49.00
48156;BME280;35568;48.104;11.782;2024-03-23T01:17:46;94798.75;;;9.18;49.03
48156;BME280;35568;48.104;11.782;2024-03-23T01:20:13;94795.31;;;9.23;49.39
48156;BME280;35568;48.104;11.782;2024-03-23T01:22:40;94791.99;;;8.96;49.50
48156;BME280;35568;48.104;11.782;2024-03-23T01:25:07;94792.18;;;9.07;49.84
48156;BME280;35568;48.104;11.782;2024-03-23T01:27:34;94789.31;;;8.96;50.03
48156;BME280;35568;48.104;11.782;2024-03-23T01:30:01;94786.83;;;8.81;50.30
48156;BME280;35568;48.104;11.782;2024-03-23T01:32:28;94788.28;;;8.77;50.42
48156;BME280;35568;48.104;11.782;2024-03-23T01:34:55;94789.27;;;8.75;50.41
48156;BME280;35568;48.104;11.782;2024-03-23T01:37:22;94786.98;;;8.66;50.50
48156;BME280;35568;48.104;11.782;2024-03-23T01:39:48;94787.33;;;8.61;50.46
48156;BME280;35568;48.104;11.782;2024-03-23T01:42:17;94784.64;;;8.62;50.46
48156;BME280;35568;48.104;11.782;2024-03-23T01:44:44;94782.29;;;8.66;50.25
48156;BME280;35568;48.104;11.782;2024-03-23T01:47:11;94782.20;;;8.70;49.99
48156;BME280;35568;48.104;11.782;2024-03-23T01:49:38;94775.35;;;8.77;49.84
48156;BME280;35568;48.104;11.782;2024-03-23T01:52:06;94769.04;;;8.87;49.62
48156;BME280;35568;48.104;11.782;2024-03-23T01:54:35;94764.95;;;8.91;49.40
48156;BME280;35568;48.104;11.782;2024-03-23T01:57:02;94763.51;;;8.92;49.33
48156;BME280;35568;48.104;11.782;2024-03-23T01:59:30;94763.03;;;8.97;49.22
48156;BME280;35568;48.104;11.782;2024-03-23T02:01:56;94760.17;;;8.95;49.16
48156;BME280;35568;48.104;11.782;2024-03-23T02:04:24;94758.78;;;8.89;49.26
48156;BME280;35568;48.104;11.782;2024-03-23T02:06:51;94755.18;;;8.80;49.40
48156;BME280;35568;48.104;11.782;2024-03-23T02:09:18;94754.70;;;8.68;49.52
48156;BME280;35568;48.104;11.782;2024-03-23T02:11:44;94755.19;;;8.59;49.45
48156;BME280;35568;48.104;11.782;2024-03-23T02:14:12;94750.03;;;8.43;49.73
48156;BME280;35568;48.104;11.782;2024-03-23T02:16:39;94748.24;;;8.51;49.23
48156;BME280;35568;48.104;11.782;2024-03-23T02:19:06;94743.77;;;8.46;49.49
48156;BME280;35568;48.104;11.782;2024-03-23T02:21:33;94742.22;;;8.12;49.61
48156;BME280;35568;48.104;11.782;2024-03-23T02:24:00;94739.48;;;8.38;49.51
48156;BME280;35568;48.104;11.782;2024-03-23T02:26:27;94736.81;;;8.36;49.51
48156;BME280;35568;48.104;11.782;2024-03-23T02:28:54;94734.62;;;8.50;49.68
48156;BME280;35568;48.104;11.782;2024-03-23T02:31:21;94735.79;;;8.13;49.88
48156;BME280;35568;48.104;11.782;2024-03-23T02:33:48;94731.72;;;8.05;49.88
48156;BME280;35568;48.104;11.782;2024-03-23T02:36:15;94729.32;;;8.24;50.06
48156;BME280;35568;48.104;11.782;2024-03-23T02:38:44;94725.62;;;8.14;50.19
48156;BME280;35568;48.104;11.782;2024-03-23T02:41:10;94721.98;;;8.30;50.19
48156;BME280;35568;48.104;11.782;2024-03-23T02:43:37;94719.32;;;7.80;50.27
48156;BME280;35568;48.104;11.782;2024-03-23T02:46:04;94715.89;;;7.70;50.38
48156;BME280;35568;48.104;11.782;2024-03-23T02:48:31;94710.92;;;7.94;50.36
48156;BME280;35568;48.104;11.782;2024-03-23T02:51:00;94705.72;;;7.61;50.52
48156;BME280;35568;48.104;11.782;2024-03-23T02:53:26;94702.71;;;7.63;50.45
48156;BME280;35568;48.104;11.782;2024-03-23T02:55:54;94701.41;;;7.90;50.38
48156;BME280;35568;48.104;11.782;2024-03-23T02:58:21;94698.86;;;7.88;50.40
48156;BME280;35568;48.104;11.782;2024-03-23T03:00:48;94699.29;;;7.81;50.50
48156;BME280;35568;48.104;11.782;2024-03-23T03:03:14;94695.55;;;7.78;50.53
48156;BME280;35568;48.104;11.782;2024-03-23T03:05:41;94696.43;;;8.09;50.26
48156;BME280;35568;48.104;11.782;2024-03-23T03:08:08;94696.78;;;7.78;50.52
48156;BME280;35568;48.104;11.782;2024-03-23T03:10:35;94698.23;;;7.78;50.30
48156;BME280;35568;48.104;11.782;2024-03-23T03:13:03;94693.90;;;7.86;50.10
48156;BME280;35568;48.104;11.782;2024-03-23T03:15:30;94689.37;;;7.88;50.03
48156;BME280;35568;48.104;11.782;2024-03-23T03:17:58;94683.86;;;7.85;50.03
48156;BME280;35568;48.104;11.782;2024-03-23T03:20:25;94677.92;;;8.13;50.04
48156;BME280;35568;48.104;11.782;2024-03-23T03:22:51;94678.05;;;8.13;49.91
48156;BME280;35568;48.104;11.782;2024-03-23T03:25:18;94680.25;;;7.92;49.85
48156;BME280;35568;48.104;11.782;2024-03-23T03:27:45;94677.49;;;7.77;49.53
48156;BME280;35568;48.104;11.782;2024-03-23T03:30:14;94674.74;;;7.82;49.39
48156;BME280;35568;48.104;11.782;2024-03-23T03:32:40;94672.32;;;8.19;49.09
48156;BME280;35568;48.104;11.782;2024-03-23T03:35:07;94674.34;;;7.99;49.08
48156;BME280;35568;48.104;11.782;2024-03-23T03:37:34;94669.24;;;8.00;49.00
48156;BME280;35568;48.104;11.782;2024-03-23T03:40:01;94665.15;;;7.94;49.13
48156;BME280;35568;48.104;11.782;2024-03-23T03:42:29;94666.31;;;8.14;48.69
48156;BME280;35568;48.104;11.782;2024-03-23T03:44:56;94661.96;;;8.38;48.66
48156;BME280;35568;48.104;11.782;2024-03-23T03:47:23;94659.25;;;8.23;48.47
48156;BME280;35568;48.104;11.782;2024-03-23T03:49:50;94660.64;;;8.24;48.38
48156;BME280;35568;48.104;11.782;2024-03-23T03:52:17;94656.52;;;8.36;48.09
48156;BME280;35568;48.104;11.782;2024-03-23T03:54:44;94656.40;;;8.42;48.05
48156;BME280;35568;48.104;11.782;2024-03-23T03:57:11;94644.47;;;8.45;47.94
48156;BME280;35568;48.104;11.782;2024-03-23T03:59:37;94639.34;;;8.48;47.93
48156;BME280;35568;48.104;11.782;2024-03-23T04:03:03;94638.77;;;8.56;46.42
48156;BME280;35568;48.104;11.782;2024-03-23T04:05:30;94640.27;;;9.41;46.16
48156;BME280;35568;48.104;11.782;2024-03-23T04:07:57;94637.22;;;8.73;46.56
48156;BME280;35568;48.104;11.782;2024-03-23T04:10:24;94636.29;;;8.98;46.89
48156;BME280;35568;48.104;11.782;2024-03-23T04:12:50;94634.39;;;8.85;47.12
48156;BME280;35568;48.104;11.782;2024-03-23T04:15:17;94627.74;;;8.80;47.31
48156;BME280;35568;48.104;11.782;2024-03-23T04:17:44;94629.03;;;8.55;47.78
48156;BME280;35568;48.104;11.782;2024-03-23T04:20:11;94622.36;;;8.44;47.83
48156;BME280;35568;48.104;11.782;2024-03-23T04:22:38;94618.65;;;8.31;48.18
48156;BME280;35568;48.104;11.782;2024-03-23T04:25:06;94613.85;;;8.17;48.45
48156;BME280;35568;48.104;11.782;2024-03-23T04:27:33;94616.58;;;8.09;48.29
48156;BME280;35568;48.104;11.782;2024-03-23T04:30:00;94605.14;;;7.84;48.83
48156;BME280;35568;48.104;11.782;2024-03-23T04:32:27;94604.36;;;7.95;48.42
48156;BME280;35568;48.104;11.782;2024-03-23T04:34:55;94596.80;;;8.48;47.88
48156;BME280;35568;48.104;11.782;2024-03-23T04:37:22;94597.81;;;8.22;47.71
48156;BME280;35568;48.104;11.782;2024-03-23T04:39:49;94585.39;;;8.29;47.62
48156;BME280;35568;48.104;11.782;2024-03-23T04:42:16;94584.24;;;8.28;47.73
48156;BME280;35568;48.104;11.782;2024-03-23T04:44:43;94577.82;;;8.30;47.31
48156;BME280;35568;48.104;11.782;2024-03-23T04:47:10;94578.99;;;8.42;47.29
48156;BME280;35568;48.104;11.782;2024-03-23T04:49:37;94572.48;;;8.53;46.82
48156;BME280;35568;48.104;11.782;2024-03-23T04:52:05;94569.07;;;8.61;46.72
48156;BME280;35568;48.104;11.782;2024-03-23T04:54:32;94566.71;;;8.57;46.53
48156;BME280;35568;48.104;11.782;2024-03-23T04:56:59;94564.80;;;8.73;46.36
48156;BME280;35568;48.104;11.782;2024-03-23T04:59:26;94564.39;;;8.75;46.04
48156;BME280;35568;48.104;11.782;2024-03-23T05:01:53;94557.59;;;8.80;46.14
48156;BME280;35568;48.104;11.782;2024-03-23T05:04:21;94553.52;;;8.94;45.73
48156;BME280;35568;48.104;11.782;2024-03-23T05:06:49;94545.77;;;8.97;45.64
48156;BME280;35568;48.104;11.782;2024-03-23T05:09:15;94539.86;;;8.93;45.52
48156;BME280;35568;48.104;11.782;2024-03-23T05:11:42;94532.47;;;8.99;45.19
48156;BME280;35568;48.104;11.782;2024-03-23T05:14:10;94527.76;;;9.06;45.51
48156;BME280;35568;48.104;11.782;2024-03-23T05:16:37;94523.46;;;8.96;45.76
48156;BME280;35568;48.104;11.782;2024-03-23T05:19:04;94516.71;;;8.63;45.86
48156;BME280;35568;48.104;11.782;2024-03-23T05:21:31;94516.30;;;8.75;46.18
48156;BME280;35568;48.104;11.782;2024-03-23T05:23:58;94517.91;;;8.49;45.80
48156;BME280;35568;48.104;11.782;2024-03-23T05:26:25;94517.28;;;8.99;44.98
48156;BME280;35568;48.104;11.782;2024-03-23T05:28:52;94514.42;;;9.04;44.47
48156;BME280;35568;48.104;11.782;2024-03-23T05:31:28;94509.82;;;9.20;44.55
48156;BME280;35568;48.104;11.782;2024-03-23T05:33:56;94510.90;;;9.30;44.25
48156;BME280;35568;48.104;11.782;2024-03-23T05:36:22;94513.23;;;9.43;43.74
48156;BME280;35568;48.104;11.782;2024-03-23T05:38:51;94512.02;;;9.31;43.72
48156;BME280;35568;48.104;11.782;2024-03-23T05:41:19;94510.23;;;9.39;43.46
48156;BME280;35568;48.104;11.782;2024-03-23T05:43:45;94509.45;;;9.35;43.18
48156;BME280;35568;48.104;11.782;2024-03-23T05:46:12;94510.58;;;9.42;43.14
48156;BME280;35568;48.104;11.782;2024-03-23T05:48:39;94515.23;;;9.45;42.65
48156;BME280;35568;48.104;11.782;2024-03-23T05:51:06;94514.64;;;9.48;42.62
48156;BME280;35568;48.104;11.782;2024-03-23T05:53:33;94512.51;;;9.62;42.29
48156;BME280;35568;48.104;11.782;2024-03-23T05:56:02;94510.78;;;9.73;42.17
48156;BME280;35568;48.104;11.782;2024-03-23T05:58:29;94504.81;;;9.90;41.76
48156;BME280;35568;48.104;11.782;2024-03-23T06:00:58;94503.50;;;9.98;41.45
48156;BME280;35568;48.104;11.782;2024-03-23T06:03:26;94502.94;;;10.12;41.35
48156;BME280;35568;48.104;11.782;2024-03-23T06:05:53;94502.19;;;10.28;41.25
48156;BME280;35568;48.104;11.782;2024-03-23T06:08:20;94499.99;;;10.01;41.15
48156;BME280;35568;48.104;11.782;2024-03-23T06:10:46;94496.88;;;10.26;41.14
48156;BME280;35568;48.104;11.782;2024-03-23T06:13:14;94494.10;;;10.17;41.18
48156;BME280;35568;48.104;11.782;2024-03-23T06:15:41;94495.31;;;10.16;40.97
48156;BME280;35568;48.104;11.782;2024-03-23T06:18:08;94486.56;;;10.29;40.73
48156;BME280;35568;48.104;11.782;2024-03-23T06:20:36;94485.20;;;9.74;40.82
48156;BME280;35568;48.104;11.782;2024-03-23T06:23:03;94482.29;;;10.56;40.22
48156;BME280;35568;48.104;11.782;2024-03-23T06:25:30;94476.77;;;10.71;39.82
48156;BME280;35568;48.104;11.782;2024-03-23T06:27:57;94470.93;;;10.88;39.51
48156;BME280;35568;48.104;11.782;2024-03-23T06:30:24;94466.24;;;10.99;39.58
48156;BME280;35568;48.104;11.782;2024-03-23T06:32:51;94460.60;;;11.65;39.38
48156;BME280;35568;48.104;11.782;2024-03-23T06:35:18;94456.44;;;11.24;38.95
48156;BME280;35568;48.104;11.782;2024-03-23T06:37:45;94448.34;;;11.39;38.72
48156;BME280;35568;48.104;11.782;2024-03-23T06:40:12;94441.56;;;11.34;38.38
48156;BME280;35568;48.104;11.782;2024-03-23T06:42:39;94436.18;;;11.56;38.13
48156;BME280;35568;48.104;11.782;2024-03-23T06:45:06;94431.11;;;11.68;38.00
48156;BME280;35568;48.104;11.782;2024-03-23T06:47:33;94425.35;;;11.71;37.70
48156;BME280;35568;48.104;11.782;2024-03-23T06:50:01;94418.06;;;11.90;37.62
48156;BME280;35568;48.104;11.782;2024-03-23T06:52:29;94407.88;;;12.42;37.45
48156;BME280;35568;48.104;11.782;2024-03-23T06:54:58;94395.98;;;12.60;36.97
48156;BME280;35568;48.104;11.782;2024-03-23T06:57:25;94390.90;;;12.99;36.41
48156;BME280;35568;48.104;11.782;2024-03-23T06:59:51;94387.07;;;12.95;36.08
48156;BME280;35568;48.104;11.782;2024-03-23T07:02:18;94385.49;;;13.09;36.13
48156;BME280;35568;48.104;11.782;2024-03-23T07:04:45;94383.64;;;12.89;35.74
48156;BME280;35568;48.104;11.782;2024-03-23T07:07:12;94385.69;;;13.54;35.30
48156;BME280;35568;48.104;11.782;2024-03-23T07:09:39;94381.83;;;13.13;35.45
48156;BME280;35568;48.104;11.782;2024-03-23T07:12:06;94382.25;;;13.31;35.95
48156;BME280;35568;48.104;11.782;2024-03-23T07:14:34;94380.35;;;13.60;35.71
48156;BME280;35568;48.104;11.782;2024-03-23T07:17:00;94377.40;;;13.99;35.50
48156;BME280;35568;48.104;11.782;2024-03-23T07:19:28;94372.71;;;13.97;34.37
48156;BME280;35568;48.104;11.782;2024-03-23T07:21:55;94375.25;;;14.55;34.92
48156;BME280;35568;48.104;11.782;2024-03-23T07:24:22;94367.36;;;14.90;34.29
48156;BME280;35568;48.104;11.782;2024-03-23T07:26:49;94363.98;;;15.42;33.62
48156;BME280;35568;48.104;11.782;2024-03-23T07:29:17;94368.15;;;15.51;33.37
48156;BME280;35568;48.104;11.782;2024-03-23T07:31:44;94361.53;;;15.54;33.30
48156;BME280;35568;48.104;11.782;2024-03-23T07:34:11;94360.66;;;15.85;33.24
48156;BME280;35568;48.104;11.782;2024-03-23T07:36:38;94371.12;;;15.50;33.28
48156;BME280;35568;48.104;11.782;2024-03-23T07:39:05;94366.76;;;14.82;33.66
48156;BME280;35568;48.104;11.782;2024-03-23T07:41:32;94376.31;;;15.65;33.53
48156;BME280;35568;48.104;11.782;2024-03-23T07:43:59;94380.28;;;15.33;33.48
48156;BME280;35568;48.104;11.782;2024-03-23T07:46:26;94390.11;;;15.65;33.34
48156;BME280;35568;48.104;11.782;2024-03-23T07:48:52;94401.08;;;15.77;33.20
48156;BME280;35568;48.104;11.782;2024-03-23T07:51:21;94399.75;;;15.58;34.06
48156;BME280;35568;48.104;11.782;2024-03-23T07:53:49;94412.13;;;16.00;33.97
48156;BME280;35568;48.104;11.782;2024-03-23T07:56:16;94416.02;;;16.38;33.46
48156;BME280;35568;48.104;11.782;2024-03-23T07:58:43;94444.18;;;15.57;34.57
48156;BME280;35568;48.104;11.782;2024-03-23T08:01:11;94461.79;;;14.75;35.28
48156;BME280;35568;48.104;11.782;2024-03-23T08:03:40;94486.36;;;14.49;37.86
48156;BME280;35568;48.104;11.782;2024-03-23T08:06:08;94488.42;;;13.83;40.06
48156;BME280;35568;48.104;11.782;2024-03-23T08:08:36;94506.77;;;13.27;41.45
48156;BME280;35568;48.104;11.782;2024-03-23T08:11:04;94516.63;;;13.38;42.58
48156;BME280;35568;48.104;11.782;2024-03-23T08:13:32;94519.99;;;12.84;43.12
48156;BME280;35568;48.104;11.782;2024-03-23T08:16:00;94524.87;;;12.24;43.49
48156;BME280;35568;48.104;11.782;2024-03-23T08:18:28;94509.21;;;12.12;45.67
48156;BME280;35568;48.104;11.782;2024-03-23T08:20:56;94541.38;;;11.15;47.74
48156;BME280;35568;48.104;11.782;2024-03-23T08:23:24;94542.52;;;10.88;49.13
48156;BME280;35568;48.104;11.782;2024-03-23T08:25:51;94549.57;;;10.44;50.23
48156;BME280;35568;48.104;11.782;2024-03-23T08:28:18;94558.73;;;10.51;51.35
48156;BME280;35568;48.104;11.782;2024-03-23T08:30:45;94560.75;;;9.87;53.62
48156;BME280;35568;48.104;11.782;2024-03-23T08:33:11;94573.27;;;9.69;54.83
48156;BME280;35568;48.104;11.782;2024-03-23T08:35:39;94576.61;;;9.37;56.03
48156;BME280;35568;48.104;11.782;2024-03-23T08:38:06;94576.29;;;9.24;57.05
48156;BME280;35568;48.104;11.782;2024-03-23T08:40:33;94588.24;;;9.42;57.72
48156;BME280;35568;48.104;11.782;2024-03-23T08:42:59;94596.47;;;9.71;58.25
48156;BME280;35568;48.104;11.782;2024-03-23T08:45:26;94607.41;;;9.42;58.98
48156;BME280;35568;48.104;11.782;2024-03-23T08:47:53;94623.80;;;9.51;58.22
48156;BME280;35568;48.104;11.782;2024-03-23T08:50:20;94638.71;;;8.52;57.95
48156;BME280;35568;48.104;11.782;2024-03-23T08:52:47;94645.93;;;8.25;59.12
48156;BME280;35568;48.104;11.782;2024-03-23T08:55:14;94645.54;;;8.20;59.07
48156;BME280;35568;48.104;11.782;2024-03-23T08:57:41;94642.25;;;7.63;60.19
48156;BME280;35568;48.104;11.782;2024-03-23T09:00:08;94648.91;;;7.87;60.57
48156;BME280;35568;48.104;11.782;2024-03-23T09:02:37;94661.32;;;8.02;60.07
48156;BME280;35568;48.104;11.782;2024-03-23T09:05:04;94657.21;;;7.90;60.06
48156;BME280;35568;48.104;11.782;2024-03-23T09:07:31;94671.07;;;8.02;59.32
48156;BME280;35568;48.104;11.782;2024-03-23T09:09:59;94675.45;;;8.18;59.58
48156;BME280;35568;48.104;11.782;2024-03-23T09:12:26;94685.73;;;8.22;59.95
48156;BME280;35568;48.104;11.782;2024-03-23T09:14:52;94692.89;;;8.17;60.11
48156;BME280;35568;48.104;11.782;2024-03-23T09:17:19;94702.89;;;8.35;59.36
48156;BME280;35568;48.104;11.782;2024-03-23T09:19:46;94710.93;;;8.04;59.02
48156;BME280;35568;48.104;11.782;2024-03-23T09:22:13;94701.28;;;8.60;58.64
48156;BME280;35568;48.104;11.782;2024-03-23T09:24:40;94691.37;;;8.47;58.50
48156;BME280;35568;48.104;11.782;2024-03-23T09:27:07;94691.47;;;8.63;58.66
48156;BME280;35568;48.104;11.782;2024-03-23T09:29:34;94692.59;;;8.75;58.86
48156;BME280;35568;48.104;11.782;2024-03-23T09:32:01;94696.98;;;8.77;58.77
48156;BME280;35568;48.104;11.782;2024-03-23T09:34:28;94696.03;;;8.75;57.93
48156;BME280;35568;48.104;11.782;2024-03-23T09:36:55;94695.97;;;9.01;58.05
48156;BME280;35568;48.104;11.782;2024-03-23T09:39:22;94702.41;;;8.88;58.12
48156;BME280;35568;48.104;11.782;2024-03-23T09:41:48;94698.97;;;9.03;57.76
48156;BME280;35568;48.104;11.782;2024-03-23T09:44:15;94693.83;;;8.99;58.34
48156;BME280;35568;48.104;11.782;2024-03-23T09:46:42;94696.68;;;9.08;57.89
48156;BME280;35568;48.104;11.782;2024-03-23T09:49:09;94698.35;;;8.95;58.44
48156;BME280;35568;48.104;11.782;2024-03-23T09:51:37;94705.98;;;9.11;57.67
48156;BME280;35568;48.104;11.782;2024-03-23T09:54:04;94714.87;;;8.80;57.68
48156;BME280;35568;48.104;11.782;2024-03-23T09:56:31;94729.29;;;8.68;58.32
48156;BME280;35568;48.104;11.782;2024-03-23T09:59:01;94738.75;;;8.11;57.31
48156;BME280;35568;48.104;11.782;2024-03-23T10:01:29;94732.80;;;8.33;57.22
48156;BME280;35568;48.104;11.782;2024-03-23T10:03:56;94742.93;;;7.67;56.68
48156;BME280;35568;48.104;11.782;2024-03-23T10:06:23;94750.47;;;7.86;57.89
48156;BME280;35568;48.104;11.782;2024-03-23T10:08:50;94758.06;;;8.01;58.65
48156;BME280;35568;48.104;11.782;2024-03-23T10:11:18;94760.27;;;7.83;57.85
48156;BME280;35568;48.104;11.782;2024-03-23T10:13:45;94766.08;;;7.77;57.69
48156;BME280;35568;48.104;11.782;2024-03-23T10:16:12;94772.92;;;7.88;57.99
48156;BME280;35568;48.104;11.782;2024-03-23T10:18:47;94785.55;;;7.70;57.96
48156;BME280;35568;48.104;11.782;2024-03-23T10:21:15;94790.10;;;7.33;57.80
48156;BME280;35568;48.104;11.782;2024-03-23T10:23:44;94779.15;;;7.46;57.17
48156;BME280;35568;48.104;11.782;2024-03-23T10:26:17;94779.64;;;7.48;56.86
48156;BME280;35568;48.104;11.782;2024-03-23T10:28:53;94770.64;;;7.51;57.19
48156;BME280;35568;48.104;11.782;2024-03-23T10:31:20;94773.92;;;7.16;57.09
48156;BME280;35568;48.104;11.782;2024-03-23T10:33:48;94776.83;;;7.06;57.38
48156;BME280;35568;48.104;11.782;2024-03-23T10:36:16;94783.44;;;7.00;57.84
48156;BME280;35568;48.104;11.782;2024-03-23T10:38:44;94786.01;;;6.98;58.47
48156;BME280;35568;48.104;11.782;2024-03-23T10:41:11;94787.52;;;7.31;57.79
48156;BME280;35568;48.104;11.782;2024-03-23T10:43:38;94794.18;;;7.00;58.08
48156;BME280;35568;48.104;11.782;2024-03-23T10:46:06;94793.43;;;7.16;58.04
48156;BME280;35568;48.104;11.782;2024-03-23T10:48:33;94807.12;;;7.30;58.67
48156;BME280;35568;48.104;11.782;2024-03-23T10:51:00;94815.14;;;7.64;58.26
48156;BME280;35568;48.104;11.782;2024-03-23T10:53:28;94793.33;;;7.91;58.17
48156;BME280;35568;48.104;11.782;2024-03-23T10:55:56;94806.01;;;7.64;57.97
48156;BME280;35568;48.104;11.782;2024-03-23T10:58:30;94814.71;;;7.22;58.07
48156;BME280;35568;48.104;11.782;2024-03-23T11:00:57;94829.16;;;7.39;58.04
48156;BME280;35568;48.104;11.782;2024-03-23T11:03:33;94842.67;;;7.62;57.96
48156;BME280;35568;48.104;11.782;2024-03-23T11:06:03;94837.22;;;7.05;57.22
48156;BME280;35568;48.104;11.782;2024-03-23T11:08:33;94835.25;;;6.64;57.31
48156;BME280;35568;48.104;11.782;2024-03-23T11:11:34;94844.90;;;6.56;56.06
48156;BME280;35568;48.104;11.782;2024-03-23T11:14:22;94850.90;;;6.81;56.60
48156;BME280;35568;48.104;11.782;2024-03-23T11:17:09;94847.80;;;6.66;57.42
48156;BME280;35568;48.104;11.782;2024-03-23T11:19:37;94852.25;;;7.16;56.52
48156;BME280;35568;48.104;11.782;2024-03-23T11:22:04;94867.87;;;6.81;54.81
48156;BME280;35568;48.104;11.782;2024-03-23T11:24:32;94855.94;;;7.15;55.77
48156;BME280;35568;48.104;11.782;2024-03-23T11:27:00;94847.49;;;6.77;55.45
48156;BME280;35568;48.104;11.782;2024-03-23T11:29:27;94856.59;;;7.61;56.07
48156;BME280;35568;48.104;11.782;2024-03-23T11:31:54;94855.90;;;6.95;55.03
48156;BME280;35568;48.104;11.782;2024-03-23T11:34:21;94862.24;;;7.02;54.87
48156;BME280;35568;48.104;11.782;2024-03-23T11:36:49;94843.20;;;7.11;54.96
48156;BME280;35568;48.104;11.782;2024-03-23T11:39:18;94838.01;;;7.57;54.66
48156;BME280;35568;48.104;11.782;2024-03-23T11:41:47;94835.18;;;7.86;55.56
48156;BME280;35568;48.104;11.782;2024-03-23T11:44:15;94838.85;;;7.68;54.61
48156;BME280;35568;48.104;11.782;2024-03-23T11:46:43;94850.54;;;7.86;54.24
48156;BME280;35568;48.104;11.782;2024-03-23T11:49:21;94848.57;;;7.69;54.93
48156;BME280;35568;48.104;11.782;2024-03-23T11:51:48;94855.40;;;7.69;55.65
48156;BME280;35568;48.104;11.782;2024-03-23T11:54:14;94846.35;;;7.79;54.56
48156;BME280;35568;48.104;11.782;2024-03-23T11:56:55;94841.25;;;7.61;54.77
48156;BME280;35568;48.104;11.782;2024-03-23T11:59:39;94849.66;;;7.87;54.51
48156;BME280;35568;48.104;11.782;2024-03-23T12:02:08;94838.08;;;7.59;54.53
48156;BME280;35568;48.104;11.782;2024-03-23T12:04:36;94834.53;;;8.10;53.14
48156;BME280;35568;48.104;11.782;2024-03-23T12:07:12;94837.24;;;8.12;54.20
48156;BME280;35568;48.104;11.782;2024-03-23T12:09:39;94829.98;;;8.56;54.47
48156;BME280;35568;48.104;11.782;2024-03-23T12:12:10;94843.05;;;8.38;52.28
48156;BME280;35568;48.104;11.782;2024-03-23T12:14:37;94839.96;;;8.41;52.44
48156;BME280;35568;48.104;11.782;2024-03-23T12:17:09;94835.75;;;8.07;52.12
48156;BME280;35568;48.104;11.782;2024-03-23T12:19:36;94826.27;;;8.36;52.75
48156;BME280;35568;48.104;11.782;2024-03-23T12:22:04;94828.72;;;8.48;52.64
48156;BME280;35568;48.104;11.782;2024-03-23T12:24:31;94825.05;;;8.71;52.27
48156;BME280;35568;48.104;11.782;2024-03-23T12:27:01;94811.43;;;8.32;53.02
48156;BME280;35568;48.104;11.782;2024-03-23T12:29:29;94816.23;;;8.21;53.44
48156;BME280;35568;48.104;11.782;2024-03-23T12:31:56;94832.24;;;8.09;52.71
48156;BME280;35568;48.104;11.782;2024-03-23T12:34:24;94834.21;;;7.77;51.85
48156;BME280;35568;48.104;11.782;2024-03-23T12:36:52;94826.04;;;7.46;51.81
48156;BME280;35568;48.104;11.782;2024-03-23T12:39:19;94836.52;;;6.84;53.43
48156;BME280;35568;48.104;11.782;2024-03-23T12:41:46;94815.60;;;6.87;53.83
48156;BME280;35568;48.104;11.782;2024-03-23T12:44:13;94804.34;;;6.67;54.46
48156;BME280;35568;48.104;11.782;2024-03-23T12:46:40;94810.44;;;7.38;54.84
48156;BME280;35568;48.104;11.782;2024-03-23T12:49:07;94815.36;;;7.44;54.40
48156;BME280;35568;48.104;11.782;2024-03-23T12:51:34;94825.27;;;7.45;53.88
48156;BME280;35568;48.104;11.782;2024-03-23T12:54:01;94827.99;;;7.52;53.47
48156;BME280;35568;48.104;11.782;2024-03-23T12:56:28;94834.66;;;7.49;53.82
48156;BME280;35568;48.104;11.782;2024-03-23T12:58:55;94836.43;;;7.54;52.64
48156;BME280;35568;48.104;11.782;2024-03-23T13:01:22;94835.89;;;7.42;51.99
48156;BME280;35568;48.104;11.782;2024-03-23T13:03:49;94842.22;;;7.59;52.05
48156;BME280;35568;48.104;11.782;2024-03-23T13:06:16;94832.82;;;7.52;50.97
48156;BME280;35568;48.104;11.782;2024-03-23T13:08:44;94837.22;;;7.70;50.79
48156;BME280;35568;48.104;11.782;2024-03-23T13:11:11;94827.81;;;7.90;49.39
48156;BME280;35568;48.104;11.782;2024-03-23T13:13:38;94835.51;;;8.25;49.87
48156;BME280;35568;48.104;11.782;2024-03-23T13:16:05;94841.07;;;8.65;49.32
48156;BME280;35568;48.104;11.782;2024-03-23T13:18:32;94836.59;;;8.75;47.31
48156;BME280;35568;48.104;11.782;2024-03-23T13:21:01;94830.60;;;8.87;48.71
48156;BME280;35568;48.104;11.782;2024-03-23T13:23:30;94824.75;;;8.91;47.24
48156;BME280;35568;48.104;11.782;2024-03-23T13:25:57;94823.07;;;9.16;47.91
48156;BME280;35568;48.104;11.782;2024-03-23T13:28:24;94822.13;;;8.96;48.17
48156;BME280;35568;48.104;11.782;2024-03-23T13:30:52;94815.68;;;8.74;45.78
48156;BME280;35568;48.104;11.782;2024-03-23T13:33:19;94812.17;;;8.57;47.15
48156;BME280;35568;48.104;11.782;2024-03-23T13:35:50;94796.80;;;8.21;46.04
48156;BME280;35568;48.104;11.782;2024-03-23T13:38:17;94796.79;;;8.35;47.38
48156;BME280;35568;48.104;11.782;2024-03-23T13:40:52;94797.92;;;7.89;44.62
48156;BME280;35568;48.104;11.782;2024-03-23T13:43:20;94796.27;;;8.35;46.52
48156;BME280;35568;48.104;11.782;2024-03-23T13:45:48;94797.72;;;8.46;46.02
48156;BME280;35568;48.104;11.782;2024-03-23T13:48:16;94800.22;;;8.22;46.23
48156;BME280;35568;48.104;11.782;2024-03-23T13:50:43;94799.28;;;8.62;43.85
48156;BME280;35568;48.104;11.782;2024-03-23T13:53:10;94806.75;;;7.83;45.88
48156;BME280;35568;48.104;11.782;2024-03-23T13:55:46;94809.42;;;7.37;44.84